sensor_id;sensor_type;location;lat;lon;timestamp;pressure;altitude;pressure_sealevel;temperature;humidity
10700;BME280;5401;41.986;21.452;2023-02-12T00:00:07;99679.66;;;1.25;48.46
10700;BME280;5401;41.986;21.452;2023-02-12T00:02:35;99685.03;;;1.24;48.45
10700;BME280;5401;41.986;21.452;2023-02-12T00:05:05;99695.25;;;1.17;48.48
10700;BME280;5401;41.986;21.452;2023-02-12T00:07:33;99693.69;;;1.15;48.18
10700;BME280;5401;41.986;21.452;2023-02-12T00:10:01;99639.06;;;0.84;48.58
10700;BME280;5401;41.986;21.452;2023-02-12T00:12:28;99685.75;;;1.15;48.25
10700;BME280;5401;41.986;21.452;2023-02-12T00:14:56;99682.53;;;1.22;48.47
10700;BME280;5401;41.986;21.452;2023-02-12T00:17:23;99683.72;;;1.18;48.26
10700;BME280;5401;41.986;21.452;2023-02-12T00:19:51;99688.69;;;1.01;48.61
10700;BME280;5401;41.986;21.452;2023-02-12T00:22:20;99695.25;;;0.85;48.92
10700;BME280;5401;41.986;21.452;2023-02-12T00:24:48;99678.50;;;0.64;48.68
10700;BME280;5401;41.986;21.452;2023-02-12T00:27:15;99695.97;;;0.54;48.89
10700;BME280;5401;41.986;21.452;2023-02-12T00:29:43;99699.06;;;0.48;49.18
10700;BME280;5401;41.986;21.452;2023-02-12T00:32:11;99691.88;;;0.50;49.66
10700;BME280;5401;41.986;21.452;2023-02-12T00:34:39;99696.69;;;0.56;49.55
10700;BME280;5401;41.986;21.452;2023-02-12T00:37:06;99679.22;;;0.55;49.53
10700;BME280;5401;41.986;21.452;2023-02-12T00:39:38;99687.84;;;0.68;49.67
10700;BME280;5401;41.986;21.452;2023-02-12T00:42:06;99684.63;;;0.75;49.41
10700;BME280;5401;41.986;21.452;2023-02-12T00:44:34;99685.78;;;0.82;49.31
10700;BME280;5401;41.986;21.452;2023-02-12T00:47:02;99669.28;;;0.70;49.01
10700;BME280;5401;41.986;21.452;2023-02-12T00:49:30;99677.91;;;0.71;49.28
10700;BME280;5401;41.986;21.452;2023-02-12T00:51:59;99686.41;;;0.75;49.41
10700;BME280;5401;41.986;21.452;2023-02-12T00:54:29;99671.91;;;0.70;49.33
10700;BME280;5401;41.986;21.452;2023-02-12T00:56:59;99682.34;;;0.71;49.52
10700;BME280;5401;41.986;21.452;2023-02-12T00:59:26;99684.84;;;0.72;49.09
10700;BME280;5401;41.986;21.452;2023-02-12T01:01:54;99664.97;;;0.69;49.63
10700;BME280;5401;41.986;21.452;2023-02-12T01:04:22;99618.50;;;0.35;49.60
10700;BME280;5401;41.986;21.452;2023-02-12T01:06:50;99658.88;;;0.57;49.57
10700;BME280;5401;41.986;21.452;2023-02-12T01:09:17;99656.22;;;0.46;49.71
10700;BME280;5401;41.986;21.452;2023-02-12T01:11:45;99666.16;;;0.43;49.77
10700;BME280;5401;41.986;21.452;2023-02-12T01:14:14;99664.00;;;0.37;49.82
10700;BME280;5401;41.986;21.452;2023-02-12T01:16:41;99656.31;;;0.34;49.97
10700;BME280;5401;41.986;21.452;2023-02-12T01:19:10;99650.94;;;0.35;49.93
10700;BME280;5401;41.986;21.452;2023-02-12T01:21:38;99658.63;;;0.38;49.93
10700;BME280;5401;41.986;21.452;2023-02-12T01:24:05;99669.16;;;0.38;49.91
10700;BME280;5401;41.986;21.452;2023-02-12T01:26:33;99662.56;;;0.33;49.88
10700;BME280;5401;41.986;21.452;2023-02-12T01:29:03;99653.56;;;0.25;50.09
10700;BME280;5401;41.986;21.452;2023-02-12T01:31:35;99651.88;;;0.24;50.23
10700;BME280;5401;41.986;21.452;2023-02-12T01:34:05;99643.81;;;0.03;50.40
10700;BME280;5401;41.986;21.452;2023-02-12T01:36:33;99647.22;;;0.16;50.43
10700;BME280;5401;41.986;21.452;2023-02-12T01:39:01;99637.00;;;0.12;50.47
10700;BME280;5401;41.986;21.452;2023-02-12T01:41:30;99631.50;;;0.04;50.31
10700;BME280;5401;41.986;21.452;2023-02-12T01:44:07;99642.44;;;0.21;50.46
10700;BME280;5401;41.986;21.452;2023-02-12T01:46:37;99620.16;;;0.25;50.48
10700;BME280;5401;41.986;21.452;2023-02-12T01:49:09;99640.19;;;0.38;50.09
10700;BME280;5401;41.986;21.452;2023-02-12T01:51:38;99641.13;;;0.37;50.50
10700;BME280;5401;41.986;21.452;2023-02-12T01:54:07;99631.31;;;0.29;50.37
10700;BME280;5401;41.986;21.452;2023-02-12T01:56:37;99636.56;;;0.18;50.41
10700;BME280;5401;41.986;21.452;2023-02-12T01:59:06;99633.19;;;0.16;50.58
10700;BME280;5401;41.986;21.452;2023-02-12T02:01:34;99635.72;;;0.17;50.01
10700;BME280;5401;41.986;21.452;2023-02-12T02:04:05;99641.09;;;0.16;50.50
10700;BME280;5401;41.986;21.452;2023-02-12T02:07:09;99636.09;;;0.24;50.71
10700;BME280;5401;41.986;21.452;2023-02-12T02:09:38;99632.38;;;0.26;50.51
10700;BME280;5401;41.986;21.452;2023-02-12T02:12:06;99630.72;;;0.25;50.75
10700;BME280;5401;41.986;21.452;2023-02-12T02:14:54;99634.91;;;0.28;50.40
10700;BME280;5401;41.986;21.452;2023-02-12T02:17:38;99621.84;;;0.15;50.20
10700;BME280;5401;41.986;21.452;2023-02-12T02:20:39;99602.47;;;0.16;50.24
10700;BME280;5401;41.986;21.452;2023-02-12T02:26:26;99618.63;;;0.23;50.34
10700;BME280;5401;41.986;21.452;2023-02-12T02:29:15;99640.06;;;0.29;50.39
10700;BME280;5401;41.986;21.452;2023-02-12T02:31:51;99648.41;;;0.23;50.51
10700;BME280;5401;41.986;21.452;2023-02-12T02:34:29;99649.75;;;0.29;50.98
10700;BME280;5401;41.986;21.452;2023-02-12T02:37:05;99630.44;;;0.28;50.35
10700;BME280;5401;41.986;21.452;2023-02-12T02:39:37;99627.59;;;0.31;50.56
10700;BME280;5401;41.986;21.452;2023-02-12T02:42:10;99631.78;;;0.34;50.48
10700;BME280;5401;41.986;21.452;2023-02-12T02:44:46;99631.78;;;0.34;51.04
10700;BME280;5401;41.986;21.452;2023-02-12T02:47:17;99637.78;;;0.25;50.71
10700;BME280;5401;41.986;21.452;2023-02-12T02:49:51;99633.19;;;0.16;50.43
10700;BME280;5401;41.986;21.452;2023-02-12T02:52:25;99639.19;;;0.07;50.73
10700;BME280;5401;41.986;21.452;2023-02-12T02:54:59;99642.16;;;0.02;50.87
10700;BME280;5401;41.986;21.452;2023-02-12T02:57:33;99644.91;;;0.01;50.59
10700;BME280;5401;41.986;21.452;2023-02-12T03:00:06;99645.81;;;-0.11;50.97
10700;BME280;5401;41.986;21.452;2023-02-12T03:02:37;99648.91;;;-0.17;51.29
10700;BME280;5401;41.986;21.452;2023-02-12T03:05:09;99646.78;;;-0.12;51.55
10700;BME280;5401;41.986;21.452;2023-02-12T03:07:42;99648.81;;;-0.04;51.34
10700;BME280;5401;41.986;21.452;2023-02-12T03:10:15;99640.47;;;0.01;51.08
10700;BME280;5401;41.986;21.452;2023-02-12T03:12:48;99633.81;;;0.08;51.38
10700;BME280;5401;41.986;21.452;2023-02-12T03:15:21;99635.00;;;0.15;51.11
10700;BME280;5401;41.986;21.452;2023-02-12T03:17:52;99652.84;;;0.23;51.27
10700;BME280;5401;41.986;21.452;2023-02-12T03:20:22;99642.41;;;0.10;51.28
10700;BME280;5401;41.986;21.452;2023-02-12T03:22:55;99646.25;;;0.17;51.16
10700;BME280;5401;41.986;21.452;2023-02-12T03:25:27;99632.63;;;0.23;51.07
10700;BME280;5401;41.986;21.452;2023-02-12T03:28:00;99649.75;;;0.29;51.39
10700;BME280;5401;41.986;21.452;2023-02-12T03:30:36;99637.31;;;0.31;51.30
10700;BME280;5401;41.986;21.452;2023-02-12T03:33:15;99639.31;;;0.38;50.97
10700;BME280;5401;41.986;21.452;2023-02-12T03:35:54;99642.94;;;0.37;51.14
10700;BME280;5401;41.986;21.452;2023-02-12T03:38:33;99635.63;;;0.40;51.09
10700;BME280;5401;41.986;21.452;2023-02-12T03:41:04;99632.88;;;0.42;51.10
10700;BME280;5401;41.986;21.452;2023-02-12T03:43:41;99631.78;;;0.44;51.01
10700;BME280;5401;41.986;21.452;2023-02-12T03:46:19;99628.44;;;0.53;51.00
10700;BME280;5401;41.986;21.452;2023-02-12T03:48:55;99637.53;;;0.60;50.83
10700;BME280;5401;41.986;21.452;2023-02-12T03:51:28;99611.31;;;0.48;50.92
10700;BME280;5401;41.986;21.452;2023-02-12T03:53:57;99630.50;;;0.61;51.04
10700;BME280;5401;41.986;21.452;2023-02-12T03:56:28;99630.50;;;0.61;51.03
10700;BME280;5401;41.986;21.452;2023-02-12T03:58:58;99605.56;;;0.54;51.21
10700;BME280;5401;41.986;21.452;2023-02-12T04:01:26;99633.72;;;0.75;51.10
10700;BME280;5401;41.986;21.452;2023-02-12T04:03:56;99621.75;;;0.71;51.25
10700;BME280;5401;41.986;21.452;2023-02-12T04:06:26;99620.41;;;0.76;51.23
10700;BME280;5401;41.986;21.452;2023-02-12T04:08:57;99637.78;;;0.79;51.37
10700;BME280;5401;41.986;21.452;2023-02-12T04:11:30;99615.72;;;0.80;51.12
10700;BME280;5401;41.986;21.452;2023-02-12T04:14:12;99612.16;;;0.81;51.06
10700;BME280;5401;41.986;21.452;2023-02-12T04:16:46;99609.63;;;0.79;51.00
10700;BME280;5401;41.986;21.452;2023-02-12T04:19:23;99592.59;;;0.72;50.92
10700;BME280;5401;41.986;21.452;2023-02-12T04:22:03;99611.44;;;0.68;51.37
10700;BME280;5401;41.986;21.452;2023-02-12T04:24:42;99601.63;;;0.59;51.04
10700;BME280;5401;41.986;21.452;2023-02-12T04:27:17;99601.84;;;0.56;51.39
10700;BME280;5401;41.986;21.452;2023-02-12T04:29:51;99584.88;;;0.49;51.23
10700;BME280;5401;41.986;21.452;2023-02-12T04:32:23;99576.97;;;0.49;51.42
10700;BME280;5401;41.986;21.452;2023-02-12T04:34:57;99574.81;;;0.43;51.64
10700;BME280;5401;41.986;21.452;2023-02-12T04:37:33;99571.09;;;0.46;51.43
10700;BME280;5401;41.986;21.452;2023-02-12T04:40:04;99582.47;;;0.46;51.62
10700;BME280;5401;41.986;21.452;2023-02-12T04:42:40;99576.34;;;0.46;51.61
10700;BME280;5401;41.986;21.452;2023-02-12T04:45:09;99592.88;;;0.48;51.69
10700;BME280;5401;41.986;21.452;2023-02-12T04:47:37;99594.69;;;0.47;51.63
10700;BME280;5401;41.986;21.452;2023-02-12T04:50:07;99581.16;;;0.30;51.64
10700;BME280;5401;41.986;21.452;2023-02-12T04:52:35;99597.66;;;0.32;52.00
10700;BME280;5401;41.986;21.452;2023-02-12T04:55:02;99601.50;;;0.28;51.93
10700;BME280;5401;41.986;21.452;2023-02-12T04:57:30;99592.16;;;0.24;52.10
10700;BME280;5401;41.986;21.452;2023-02-12T04:59:58;99587.75;;;0.25;52.36
10700;BME280;5401;41.986;21.452;2023-02-12T05:02:26;99596.00;;;0.31;52.15
10700;BME280;5401;41.986;21.452;2023-02-12T05:04:53;99603.31;;;0.38;52.48
10700;BME280;5401;41.986;21.452;2023-02-12T05:07:22;99615.50;;;0.39;52.30
10700;BME280;5401;41.986;21.452;2023-02-12T05:09:50;99600.16;;;0.44;52.28
10700;BME280;5401;41.986;21.452;2023-02-12T05:12:17;99596.50;;;0.47;52.73
10700;BME280;5401;41.986;21.452;2023-02-12T05:14:45;99598.63;;;0.53;52.29
10700;BME280;5401;41.986;21.452;2023-02-12T05:17:12;99598.72;;;0.62;52.51
10700;BME280;5401;41.986;21.452;2023-02-12T05:19:40;99587.59;;;0.70;51.99
10700;BME280;5401;41.986;21.452;2023-02-12T05:22:07;99589.84;;;0.74;52.10
10700;BME280;5401;41.986;21.452;2023-02-12T05:24:36;99592.00;;;0.80;52.19
10700;BME280;5401;41.986;21.452;2023-02-12T05:27:03;99579.53;;;0.82;51.98
10700;BME280;5401;41.986;21.452;2023-02-12T05:29:31;99591.91;;;0.81;52.42
10700;BME280;5401;41.986;21.452;2023-02-12T05:31:58;99600.88;;;0.79;52.30
10700;BME280;5401;41.986;21.452;2023-02-12T05:34:26;99592.97;;;0.79;52.37
10700;BME280;5401;41.986;21.452;2023-02-12T05:36:53;99607.72;;;0.81;52.61
10700;BME280;5401;41.986;21.452;2023-02-12T05:39:21;99613.81;;;0.82;52.34
10700;BME280;5401;41.986;21.452;2023-02-12T05:41:50;99609.97;;;0.86;52.17
10700;BME280;5401;41.986;21.452;2023-02-12T05:44:17;99619.91;;;0.93;52.74
10700;BME280;5401;41.986;21.452;2023-02-12T05:46:45;99607.56;;;0.94;52.17
10700;BME280;5401;41.986;21.452;2023-02-12T05:49:12;99610.91;;;0.96;52.32
10700;BME280;5401;41.986;21.452;2023-02-12T05:51:40;99613.56;;;0.96;51.99
10700;BME280;5401;41.986;21.452;2023-02-12T05:54:08;99609.22;;;0.95;52.13
10700;BME280;5401;41.986;21.452;2023-02-12T05:56:42;99651.16;;;0.87;52.17
10700;BME280;5401;41.986;21.452;2023-02-12T05:59:14;99624.09;;;0.85;52.26
10700;BME280;5401;41.986;21.452;2023-02-12T06:01:43;99646.53;;;0.79;52.43
10700;BME280;5401;41.986;21.452;2023-02-12T06:04:13;99647.84;;;0.74;52.32
10700;BME280;5401;41.986;21.452;2023-02-12T06:06:42;99687.25;;;0.75;52.49
10700;BME280;5401;41.986;21.452;2023-02-12T06:09:11;99672.84;;;0.69;52.72
10700;BME280;5401;41.986;21.452;2023-02-12T06:11:39;99683.16;;;0.82;52.54
10700;BME280;5401;41.986;21.452;2023-02-12T06:14:10;99692.03;;;0.70;52.69
10700;BME280;5401;41.986;21.452;2023-02-12T06:16:40;99674.16;;;0.85;52.64
10700;BME280;5401;41.986;21.452;2023-02-12T06:19:08;99728.09;;;0.92;52.61
10700;BME280;5401;41.986;21.452;2023-02-12T06:21:36;99693.72;;;0.93;52.70
10700;BME280;5401;41.986;21.452;2023-02-12T06:24:04;99684.72;;;0.96;52.46
10700;BME280;5401;41.986;21.452;2023-02-12T06:26:31;99711.31;;;0.93;52.42
10700;BME280;5401;41.986;21.452;2023-02-12T06:29:00;99693.22;;;0.88;52.67
10700;BME280;5401;41.986;21.452;2023-02-12T06:31:28;99688.19;;;0.96;53.02
10700;BME280;5401;41.986;21.452;2023-02-12T06:34:00;99697.06;;;1.06;52.96
10700;BME280;5401;41.986;21.452;2023-02-12T06:36:28;99697.16;;;1.05;52.57
10700;BME280;5401;41.986;21.452;2023-02-12T06:38:56;99693.59;;;1.06;52.86
10700;BME280;5401;41.986;21.452;2023-02-12T06:41:23;99676.31;;;1.12;53.05
10700;BME280;5401;41.986;21.452;2023-02-12T06:43:51;99683.00;;;1.16;52.91
10700;BME280;5401;41.986;21.452;2023-02-12T06:46:18;99678.34;;;1.20;52.90
10700;BME280;5401;41.986;21.452;2023-02-12T06:48:46;99671.75;;;1.25;53.09
10700;BME280;5401;41.986;21.452;2023-02-12T06:51:18;99676.31;;;1.23;52.80
10700;BME280;5401;41.986;21.452;2023-02-12T06:53:50;99661.47;;;1.11;53.01
10700;BME280;5401;41.986;21.452;2023-02-12T06:56:18;99670.44;;;1.09;53.18
10700;BME280;5401;41.986;21.452;2023-02-12T06:58:51;99668.78;;;1.08;53.11
10700;BME280;5401;41.986;21.452;2023-02-12T07:01:22;99670.09;;;1.03;52.95
10700;BME280;5401;41.986;21.452;2023-02-12T07:03:51;99681.38;;;0.94;52.79
10700;BME280;5401;41.986;21.452;2023-02-12T07:06:21;99683.78;;;0.86;53.13
10700;BME280;5401;41.986;21.452;2023-02-12T07:08:49;99711.09;;;0.96;53.37
10700;BME280;5401;41.986;21.452;2023-02-12T07:11:17;99709.53;;;0.93;53.10
10700;BME280;5401;41.986;21.452;2023-02-12T07:13:45;99726.53;;;1.00;53.51
10700;BME280;5401;41.986;21.452;2023-02-12T07:16:14;99728.34;;;1.00;53.21
10700;BME280;5401;41.986;21.452;2023-02-12T07:18:43;99756.03;;;1.05;53.17
10700;BME280;5401;41.986;21.452;2023-02-12T07:21:12;99747.50;;;1.12;53.55
10700;BME280;5401;41.986;21.452;2023-02-12T07:23:45;99746.28;;;1.27;53.09
10700;BME280;5401;41.986;21.452;2023-02-12T07:26:14;99750.75;;;1.38;53.38
10700;BME280;5401;41.986;21.452;2023-02-12T07:28:42;99762.69;;;1.52;53.66
10700;BME280;5401;41.986;21.452;2023-02-12T07:31:11;99765.06;;;1.66;52.95
10700;BME280;5401;41.986;21.452;2023-02-12T07:33:40;99751.13;;;1.75;52.65
10700;BME280;5401;41.986;21.452;2023-02-12T07:36:10;99724.00;;;1.84;53.32
10700;BME280;5401;41.986;21.452;2023-02-12T07:38:38;99728.94;;;1.98;53.01
10700;BME280;5401;41.986;21.452;2023-02-12T07:41:09;99732.66;;;2.06;52.97
10700;BME280;5401;41.986;21.452;2023-02-12T07:43:39;99718.22;;;2.10;52.86
10700;BME280;5401;41.986;21.452;2023-02-12T07:46:09;99706.63;;;2.22;52.72
10700;BME280;5401;41.986;21.452;2023-02-12T07:48:37;99708.91;;;2.26;52.66
10700;BME280;5401;41.986;21.452;2023-02-12T07:51:06;99708.44;;;2.42;52.26
10700;BME280;5401;41.986;21.452;2023-02-12T07:53:35;99687.25;;;2.52;52.05
10700;BME280;5401;41.986;21.452;2023-02-12T07:56:09;99671.69;;;2.59;52.16
10700;BME280;5401;41.986;21.452;2023-02-12T07:58:37;99650.25;;;2.52;52.20
10700;BME280;5401;41.986;21.452;2023-02-12T08:01:13;99652.91;;;2.62;51.76
10700;BME280;5401;41.986;21.452;2023-02-12T08:03:42;99642.75;;;2.57;51.90
10700;BME280;5401;41.986;21.452;2023-02-12T08:06:11;99637.16;;;2.51;52.55
10700;BME280;5401;41.986;21.452;2023-02-12T08:08:39;99641.41;;;2.43;51.68
10700;BME280;5401;41.986;21.452;2023-02-12T08:11:09;99619.00;;;2.37;52.04
10700;BME280;5401;41.986;21.452;2023-02-12T08:13:38;99602.00;;;2.30;51.72
10700;BME280;5401;41.986;21.452;2023-02-12T08:16:09;99634.63;;;2.49;51.99
10700;BME280;5401;41.986;21.452;2023-02-12T08:18:37;99637.69;;;2.54;52.35
10700;BME280;5401;41.986;21.452;2023-02-12T08:21:07;99612.00;;;2.36;52.14
10700;BME280;5401;41.986;21.452;2023-02-12T08:23:35;99638.44;;;2.36;52.31
10700;BME280;5401;41.986;21.452;2023-02-12T08:26:09;99638.59;;;2.35;52.92
10700;BME280;5401;41.986;21.452;2023-02-12T08:28:38;99620.34;;;2.32;52.26
10700;BME280;5401;41.986;21.452;2023-02-12T08:31:08;99643.66;;;2.47;52.44
10700;BME280;5401;41.986;21.452;2023-02-12T08:33:36;99630.88;;;2.52;52.18
10700;BME280;5401;41.986;21.452;2023-02-12T08:36:06;99645.22;;;2.79;51.91
10700;BME280;5401;41.986;21.452;2023-02-12T08:38:35;99641.91;;;2.96;52.70
10700;BME280;5401;41.986;21.452;2023-02-12T08:41:04;99644.78;;;3.22;51.55
10700;BME280;5401;41.986;21.452;2023-02-12T08:43:34;99617.91;;;3.18;52.29
10700;BME280;5401;41.986;21.452;2023-02-12T08:46:04;99632.69;;;3.39;52.33
10700;BME280;5401;41.986;21.452;2023-02-12T08:48:32;99641.34;;;3.50;51.41
10700;BME280;5401;41.986;21.452;2023-02-12T08:51:04;99654.56;;;3.41;51.83
10700;BME280;5401;41.986;21.452;2023-02-12T08:53:32;99647.16;;;3.35;51.60
10700;BME280;5401;41.986;21.452;2023-02-12T08:56:00;99664.56;;;3.37;51.63
10700;BME280;5401;41.986;21.452;2023-02-12T08:58:28;99664.69;;;3.26;51.99
10700;BME280;5401;41.986;21.452;2023-02-12T09:00:57;99661.19;;;3.17;51.79
10700;BME280;5401;41.986;21.452;2023-02-12T09:03:25;99677.59;;;3.11;51.44
10700;BME280;5401;41.986;21.452;2023-02-12T09:05:52;99690.59;;;3.23;51.43
10700;BME280;5401;41.986;21.452;2023-02-12T09:08:20;99679.22;;;3.41;51.73
10700;BME280;5401;41.986;21.452;2023-02-12T09:10:48;99691.94;;;3.56;52.18
10700;BME280;5401;41.986;21.452;2023-02-12T09:13:15;99688.59;;;3.64;51.98
10700;BME280;5401;41.986;21.452;2023-02-12T09:15:44;99685.81;;;3.56;51.27
10700;BME280;5401;41.986;21.452;2023-02-12T09:18:14;99688.44;;;3.56;51.48
10700;BME280;5401;41.986;21.452;2023-02-12T09:20:43;99685.41;;;3.79;51.52
10700;BME280;5401;41.986;21.452;2023-02-12T09:23:13;99675.94;;;3.86;51.10
10700;BME280;5401;41.986;21.452;2023-02-12T09:25:41;99667.44;;;3.83;51.49
10700;BME280;5401;41.986;21.452;2023-02-12T09:28:11;99661.44;;;3.81;51.02
10700;BME280;5401;41.986;21.452;2023-02-12T09:30:39;99699.91;;;4.03;50.95
10700;BME280;5401;41.986;21.452;2023-02-12T09:33:09;99684.72;;;4.05;50.84
10700;BME280;5401;41.986;21.452;2023-02-12T09:35:39;99688.06;;;4.07;51.07
10700;BME280;5401;41.986;21.452;2023-02-12T09:38:10;99694.59;;;4.03;51.37
10700;BME280;5401;41.986;21.452;2023-02-12T09:40:44;99703.25;;;4.05;51.16
10700;BME280;5401;41.986;21.452;2023-02-12T09:43:20;99706.34;;;4.01;51.44
10700;BME280;5401;41.986;21.452;2023-02-12T09:45:57;99704.50;;;4.01;51.44
10700;BME280;5401;41.986;21.452;2023-02-12T09:48:40;99697.38;;;4.02;50.64
10700;BME280;5401;41.986;21.452;2023-02-12T09:51:15;99697.97;;;4.05;50.44
10700;BME280;5401;41.986;21.452;2023-02-12T09:53:44;99691.69;;;4.06;51.14
10700;BME280;5401;41.986;21.452;2023-02-12T09:56:14;99707.19;;;4.20;51.22
10700;BME280;5401;41.986;21.452;2023-02-12T09:58:46;99704.94;;;4.25;50.41
10700;BME280;5401;41.986;21.452;2023-02-12T10:01:17;99682.63;;;4.18;50.47
10700;BME280;5401;41.986;21.452;2023-02-12T10:03:48;99683.59;;;4.26;50.68
10700;BME280;5401;41.986;21.452;2023-02-12T10:06:19;99695.28;;;4.33;50.37
10700;BME280;5401;41.986;21.452;2023-02-12T10:08:58;99712.28;;;4.50;50.54
10700;BME280;5401;41.986;21.452;2023-02-12T10:11:41;99693.47;;;4.53;50.52
10700;BME280;5401;41.986;21.452;2023-02-12T10:14:35;99694.28;;;4.62;50.14
10700;BME280;5401;41.986;21.452;2023-02-12T10:17:18;99683.63;;;4.72;50.20
10700;BME280;5401;41.986;21.452;2023-02-12T10:20:02;99695.63;;;4.76;50.21
10700;BME280;5401;41.986;21.452;2023-02-12T10:22:40;99691.69;;;4.80;50.15
10700;BME280;5401;41.986;21.452;2023-02-12T10:25:20;99703.13;;;4.90;50.13
10700;BME280;5401;41.986;21.452;2023-02-12T10:27:53;99699.47;;;4.91;49.83
10700;BME280;5401;41.986;21.452;2023-02-12T10:30:23;99708.41;;;4.90;49.77
10700;BME280;5401;41.986;21.452;2023-02-12T10:32:59;99684.06;;;4.67;50.04
10700;BME280;5401;41.986;21.452;2023-02-12T10:35:29;99701.91;;;4.75;49.96
10700;BME280;5401;41.986;21.452;2023-02-12T10:38:04;99716.53;;;4.88;50.05
10700;BME280;5401;41.986;21.452;2023-02-12T10:40:34;99686.63;;;4.86;49.56
10700;BME280;5401;41.986;21.452;2023-02-12T10:43:04;99712.72;;;4.91;49.79
10700;BME280;5401;41.986;21.452;2023-02-12T10:45:33;99707.88;;;4.86;49.88
10700;BME280;5401;41.986;21.452;2023-02-12T10:48:05;99707.03;;;4.86;50.14
10700;BME280;5401;41.986;21.452;2023-02-12T10:50:40;99702.69;;;4.94;50.27
10700;BME280;5401;41.986;21.452;2023-02-12T10:53:17;99707.22;;;5.11;49.85
10700;BME280;5401;41.986;21.452;2023-02-12T10:55:46;99702.06;;;5.09;50.21
10700;BME280;5401;41.986;21.452;2023-02-12T10:58:20;99690.00;;;5.15;50.08
10700;BME280;5401;41.986;21.452;2023-02-12T11:00:56;99720.44;;;5.30;49.92
10700;BME280;5401;41.986;21.452;2023-02-12T11:03:29;99724.16;;;5.36;49.94
10700;BME280;5401;41.986;21.452;2023-02-12T11:06:10;99707.34;;;5.45;50.15
10700;BME280;5401;41.986;21.452;2023-02-12T11:08:41;99716.94;;;5.56;49.81
10700;BME280;5401;41.986;21.452;2023-02-12T11:11:10;99723.44;;;5.61;49.86
10700;BME280;5401;41.986;21.452;2023-02-12T11:13:43;99722.84;;;5.67;49.81
10700;BME280;5401;41.986;21.452;2023-02-12T11:16:12;99712.50;;;5.73;50.16
10700;BME280;5401;41.986;21.452;2023-02-12T11:18:39;99695.78;;;5.64;49.83
10700;BME280;5401;41.986;21.452;2023-02-12T11:21:09;99710.94;;;5.80;49.84
10700;BME280;5401;41.986;21.452;2023-02-12T11:23:40;99704.69;;;5.89;49.91
10700;BME280;5401;41.986;21.452;2023-02-12T11:26:23;99701.97;;;5.99;49.82
10700;BME280;5401;41.986;21.452;2023-02-12T11:28:56;99716.94;;;6.17;49.97
10700;BME280;5401;41.986;21.452;2023-02-12T11:31:26;99711.38;;;6.28;49.53
10700;BME280;5401;41.986;21.452;2023-02-12T11:34:09;99700.00;;;6.35;49.38
10700;BME280;5401;41.986;21.452;2023-02-12T11:36:42;99705.22;;;6.44;49.23
10700;BME280;5401;41.986;21.452;2023-02-12T11:39:19;99693.78;;;6.52;49.60
10700;BME280;5401;41.986;21.452;2023-02-12T11:41:50;99709.88;;;6.68;49.68
10700;BME280;5401;41.986;21.452;2023-02-12T11:44:22;99704.09;;;6.72;49.44
10700;BME280;5401;41.986;21.452;2023-02-12T11:46:54;99696.69;;;6.83;49.25
10700;BME280;5401;41.986;21.452;2023-02-12T11:49:24;99705.41;;;6.93;49.56
10700;BME280;5401;41.986;21.452;2023-02-12T11:51:54;99711.09;;;6.98;49.44
10700;BME280;5401;41.986;21.452;2023-02-12T11:54:27;99704.31;;;7.04;49.43
10700;BME280;5401;41.986;21.452;2023-02-12T11:56:55;99705.50;;;7.09;49.43
10700;BME280;5401;41.986;21.452;2023-02-12T11:59:31;99719.84;;;7.16;49.66
10700;BME280;5401;41.986;21.452;2023-02-12T12:02:04;99706.19;;;7.19;49.70
10700;BME280;5401;41.986;21.452;2023-02-12T12:04:33;99714.72;;;7.22;49.68
10700;BME280;5401;41.986;21.452;2023-02-12T12:07:05;99724.41;;;7.23;49.43
10700;BME280;5401;41.986;21.452;2023-02-12T12:09:42;99723.91;;;7.28;49.90
10700;BME280;5401;41.986;21.452;2023-02-12T12:12:16;99719.09;;;7.31;49.49
10700;BME280;5401;41.986;21.452;2023-02-12T12:14:48;99711.56;;;7.27;49.43
10700;BME280;5401;41.986;21.452;2023-02-12T12:17:40;99722.72;;;7.22;49.71
10700;BME280;5401;41.986;21.452;2023-02-12T12:20:31;99702.91;;;6.92;49.49
10700;BME280;5401;41.986;21.452;2023-02-12T12:23:05;99701.44;;;6.72;50.23
10700;BME280;5401;41.986;21.452;2023-02-12T12:25:42;99717.56;;;6.71;50.27
10700;BME280;5401;41.986;21.452;2023-02-12T12:28:25;99713.03;;;6.63;50.26
10700;BME280;5401;41.986;21.452;2023-02-12T12:31:01;99710.91;;;6.67;50.74
10700;BME280;5401;41.986;21.452;2023-02-12T12:33:37;99704.34;;;6.61;50.66
10700;BME280;5401;41.986;21.452;2023-02-12T12:36:30;99714.00;;;6.62;51.04
10700;BME280;5401;41.986;21.452;2023-02-12T12:39:03;99709.69;;;6.61;50.75
10700;BME280;5401;41.986;21.452;2023-02-12T12:41:41;99704.88;;;6.65;50.84
10700;BME280;5401;41.986;21.452;2023-02-12T12:44:22;99704.78;;;6.74;50.73
10700;BME280;5401;41.986;21.452;2023-02-12T12:47:06;99706.94;;;6.71;50.78
10700;BME280;5401;41.986;21.452;2023-02-12T12:49:53;99707.50;;;6.82;50.82
10700;BME280;5401;41.986;21.452;2023-02-12T12:52:40;99696.22;;;6.88;50.82
10700;BME280;5401;41.986;21.452;2023-02-12T12:58:18;99725.56;;;6.96;50.62
10700;BME280;5401;41.986;21.452;2023-02-12T13:01:00;99711.75;;;7.00;51.31
10700;BME280;5401;41.986;21.452;2023-02-12T13:03:44;99714.28;;;7.02;51.19
10700;BME280;5401;41.986;21.452;2023-02-12T13:06:55;99699.72;;;6.88;51.17
10700;BME280;5401;41.986;21.452;2023-02-12T13:09:36;99717.72;;;6.94;51.42
10700;BME280;5401;41.986;21.452;2023-02-12T13:15:20;99730.56;;;6.74;51.17
10700;BME280;5401;41.986;21.452;2023-02-12T13:17:56;99733.91;;;6.58;51.48
10700;BME280;5401;41.986;21.452;2023-02-12T13:20:34;99749.38;;;6.55;51.55
10700;BME280;5401;41.986;21.452;2023-02-12T13:23:11;99741.59;;;6.44;51.63
10700;BME280;5401;41.986;21.452;2023-02-12T13:25:48;99732.13;;;6.41;51.94
10700;BME280;5401;41.986;21.452;2023-02-12T13:28:28;99745.81;;;6.46;51.60
10700;BME280;5401;41.986;21.452;2023-02-12T13:31:00;99733.03;;;6.50;52.00
10700;BME280;5401;41.986;21.452;2023-02-12T13:33:38;99733.47;;;6.63;51.74
10700;BME280;5401;41.986;21.452;2023-02-12T13:36:09;99723.94;;;6.77;51.69
10700;BME280;5401;41.986;21.452;2023-02-12T13:38:42;99725.41;;;6.97;51.61
10700;BME280;5401;41.986;21.452;2023-02-12T13:41:12;99717.81;;;7.10;50.96
10700;BME280;5401;41.986;21.452;2023-02-12T13:43:48;99713.22;;;7.20;51.06